3  °C
Temperature
37  °F
Temperature
36  °F
 Dewpoint
2  °C
  Dewpoint
93  %
 Humidity
  Temperature
8  km/h
Wind Speed
4  kts
Wind Speed
5  mph
Wind Speed
0  m/s
Wind Speed
100°
Due East

Wind Speed
Mostly Scattered
Clouds
Pressure 1017.92 (hPa) - 30.06 (inHG)
Visibility 4.3 (mi) - 7.0 (km)

Sky Conditions
EDDK
Location Köln - Bonn 24,85 mi (38.62 km)
Metar :EDDK 201020Z 10004KT 070V140 7000 SCT006 03/02 Q1018 NOSIG
Wed 20th November 12:20 pm

Nearest Airport
https://www.checkwx.com/weather/EDDK
  Metar Aviation API Data Provided by https://www.checkwx.com/ Original CSS/SVG/PHP scripts by weather34.com © 2015-2019